createdAt,value
2023-08-05T00:01:23.319Z,7.50
2023-08-05T00:03:50.598Z,8.40
2023-08-05T00:06:18.221Z,7.35
2023-08-05T00:08:45.851Z,7.05
2023-08-05T00:11:13.043Z,8.00
2023-08-05T00:13:40.301Z,7.80
2023-08-05T00:16:08.051Z,8.27
2023-08-05T00:18:35.373Z,7.00
2023-08-05T00:21:02.559Z,7.28
2023-08-05T00:23:29.741Z,7.70
2023-08-05T00:25:56.898Z,7.70
2023-08-05T00:28:24.178Z,8.00
2023-08-05T00:30:51.364Z,7.78
2023-08-05T00:33:18.629Z,7.70
2023-08-05T00:35:45.847Z,8.18
2023-08-05T00:38:13.058Z,8.45
2023-08-05T00:40:42.325Z,9.00
2023-08-05T00:43:09.615Z,8.20
2023-08-05T00:45:37.066Z,9.00
2023-08-05T00:48:04.538Z,7.57
2023-08-05T00:50:33.373Z,7.25
2023-08-05T00:53:01.107Z,7.60
2023-08-05T00:55:28.924Z,7.38
2023-08-05T00:57:56.199Z,7.40
2023-08-05T01:00:24.377Z,7.05
2023-08-05T01:02:51.633Z,7.30
2023-08-05T01:05:20.392Z,8.02
2023-08-05T01:07:48.673Z,9.32
2023-08-05T01:10:16.121Z,7.15
2023-08-05T01:12:43.549Z,7.18
2023-08-05T01:15:10.814Z,6.75
2023-08-05T01:17:38.152Z,6.90
2023-08-05T01:20:07.073Z,6.60
2023-08-05T01:22:56.408Z,7.68
2023-08-05T01:25:31.234Z,6.60
2023-08-05T01:28:00.921Z,7.60
2023-08-05T01:30:29.403Z,7.85
2023-08-05T01:33:00.422Z,7.25
2023-08-05T01:35:27.665Z,7.70
2023-08-05T01:37:54.960Z,7.55
2023-08-05T01:40:22.552Z,7.57
2023-08-05T01:42:50.350Z,7.43
2023-08-05T01:45:18.278Z,7.53
2023-08-05T01:47:45.484Z,7.20
2023-08-05T01:50:12.791Z,8.07
2023-08-05T01:52:40.013Z,8.13
2023-08-05T01:55:07.587Z,8.13
2023-08-05T01:57:34.877Z,8.43
2023-08-05T02:00:02.721Z,8.32
2023-08-05T02:02:41.843Z,7.90
2023-08-05T02:05:10.819Z,7.70
2023-08-05T02:07:38.083Z,7.57
2023-08-05T02:10:05.849Z,8.02
2023-08-05T02:12:33.346Z,8.35
2023-08-05T02:15:01.104Z,7.85
2023-08-05T02:17:33.074Z,8.05
2023-08-05T02:20:00.346Z,7.53
2023-08-05T02:22:27.591Z,7.70
2023-08-05T02:24:54.823Z,7.35
2023-08-05T02:27:22.131Z,7.68
2023-08-05T02:29:49.386Z,8.15
2023-08-05T02:32:17.934Z,8.20
2023-08-05T02:34:45.559Z,8.02
2023-08-05T02:37:12.769Z,8.15
2023-08-05T02:39:43.136Z,7.40
2023-08-05T02:42:10.382Z,7.95
2023-08-05T02:44:37.804Z,9.48
2023-08-05T02:47:05.298Z,7.38
2023-08-05T02:49:33.790Z,8.00
2023-08-05T02:52:01.128Z,12.50
2023-08-05T02:54:28.657Z,10.18
2023-08-05T02:56:55.858Z,7.72
2023-08-05T02:59:23.663Z,8.68
2023-08-05T03:01:51.073Z,8.68
2023-08-05T03:04:18.410Z,9.55
2023-08-05T03:06:45.774Z,10.75
2023-08-05T03:09:14.106Z,9.07
2023-08-05T03:11:41.494Z,9.70
2023-08-05T03:14:09.571Z,8.60
2023-08-05T03:16:38.869Z,9.68
2023-08-05T03:19:14.621Z,8.75
2023-08-05T03:21:42.736Z,8.50
2023-08-05T03:24:10.837Z,8.30
2023-08-05T03:26:40.288Z,8.88
2023-08-05T03:29:10.305Z,8.05
2023-08-05T03:31:38.522Z,8.40
2023-08-05T03:34:06.837Z,8.48
2023-08-05T03:36:35.384Z,7.72
2023-08-05T03:39:04.757Z,8.55
2023-08-05T03:41:32.000Z,7.65
2023-08-05T03:43:59.252Z,7.80
2023-08-05T03:46:26.561Z,8.30
2023-08-05T03:48:54.095Z,7.93
2023-08-05T03:51:21.511Z,7.47
2023-08-05T03:53:49.005Z,8.40
2023-08-05T03:56:20.454Z,7.45
2023-08-05T03:58:52.709Z,7.10
2023-08-05T04:01:23.127Z,7.20
2023-08-05T04:03:51.352Z,7.32
2023-08-05T04:06:21.760Z,7.18
2023-08-05T04:11:16.813Z,6.70
2023-08-05T04:13:45.938Z,6.90
2023-08-05T04:16:13.321Z,7.10
2023-08-05T04:18:42.260Z,7.00
2023-08-05T04:21:11.446Z,6.88
2023-08-05T04:23:39.200Z,6.20
2023-08-05T04:26:06.561Z,6.75
2023-08-05T04:28:34.018Z,6.43
2023-08-05T04:31:01.545Z,6.43
2023-08-05T04:33:29.118Z,5.88
2023-08-05T04:35:58.457Z,5.90
2023-08-05T04:38:25.750Z,6.10
2023-08-05T04:40:53.098Z,5.82
2023-08-05T04:43:20.433Z,5.60
2023-08-05T04:45:52.042Z,5.60
2023-08-05T04:48:19.455Z,4.88
2023-08-05T04:50:46.739Z,5.00
2023-08-05T04:53:16.677Z,4.93
2023-08-05T04:55:43.975Z,4.78
2023-08-05T04:58:12.436Z,5.38
2023-08-05T05:00:40.080Z,4.30
2023-08-05T05:03:09.022Z,4.90
2023-08-05T05:05:36.922Z,5.53
2023-08-05T05:08:04.316Z,4.60
2023-08-05T05:10:31.536Z,5.50
2023-08-05T05:12:59.614Z,4.60
2023-08-05T05:15:27.546Z,4.88
2023-08-05T05:17:54.939Z,4.45
2023-08-05T05:20:22.329Z,4.35
2023-08-05T05:22:50.719Z,4.32
2023-08-05T05:25:36.382Z,4.22
2023-08-05T05:28:21.872Z,4.43
2023-08-05T05:30:49.160Z,4.60
2023-08-05T05:33:16.387Z,3.85
2023-08-05T05:35:43.614Z,4.18
2023-08-05T05:38:10.804Z,4.13
2023-08-05T05:40:41.801Z,3.70
2023-08-05T05:43:09.657Z,4.13
2023-08-05T05:45:36.927Z,4.03
2023-08-05T05:48:04.663Z,4.07
2023-08-05T05:50:31.996Z,4.30
2023-08-05T05:52:59.244Z,4.90
2023-08-05T05:55:26.445Z,4.20
2023-08-05T05:57:53.679Z,4.22
2023-08-05T06:00:20.888Z,3.80
2023-08-05T06:02:48.062Z,4.03
2023-08-05T06:05:15.364Z,3.47
2023-08-05T06:07:42.595Z,3.90
2023-08-05T06:10:10.105Z,2.50
2023-08-05T06:12:39.109Z,2.60
2023-08-05T06:15:09.006Z,2.45
2023-08-05T06:17:36.937Z,2.30
2023-08-05T06:20:06.072Z,2.10
2023-08-05T06:22:33.410Z,2.50
2023-08-05T06:25:00.754Z,3.97
2023-08-05T06:27:28.133Z,2.08
2023-08-05T06:29:55.435Z,2.20
2023-08-05T06:32:22.857Z,2.42
2023-08-05T06:34:50.076Z,1.80
2023-08-05T06:37:17.280Z,1.83
2023-08-05T06:39:44.519Z,2.95
2023-08-05T06:42:11.740Z,2.40
2023-08-05T06:44:44.852Z,2.20
2023-08-05T06:47:12.205Z,2.30
2023-08-05T06:49:39.517Z,2.10
2023-08-05T06:52:07.376Z,1.60
2023-08-05T06:54:37.780Z,1.83
2023-08-05T06:57:05.097Z,1.85
2023-08-05T06:59:32.406Z,2.38
2023-08-05T07:02:01.497Z,1.73
2023-08-05T07:04:28.924Z,1.88
2023-08-05T07:06:56.164Z,2.05
2023-08-05T07:09:23.367Z,1.45
2023-08-05T07:11:50.890Z,1.63
2023-08-05T07:14:18.272Z,1.80
2023-08-05T07:16:45.413Z,1.50
2023-08-05T07:19:12.588Z,1.70
2023-08-05T07:21:39.762Z,1.60
2023-08-05T07:24:06.978Z,1.40
2023-08-05T07:26:34.524Z,1.60
2023-08-05T07:29:01.714Z,1.50
2023-08-05T07:31:28.950Z,1.70
2023-08-05T07:33:56.186Z,1.60
2023-08-05T07:36:24.070Z,1.67
2023-08-05T07:38:52.787Z,1.70
2023-08-05T07:41:22.731Z,1.42
2023-08-05T07:43:51.342Z,1.60
2023-08-05T07:46:20.874Z,1.98
2023-08-05T07:48:51.449Z,2.22
2023-08-05T07:51:19.814Z,2.10
2023-08-05T07:53:49.293Z,1.88
2023-08-05T07:56:17.573Z,1.73
2023-08-05T07:58:48.023Z,1.88
2023-08-05T08:01:22.970Z,2.05
2023-08-05T08:04:03.194Z,2.00
2023-08-05T08:06:33.424Z,3.35
2023-08-05T08:11:27.711Z,1.95
2023-08-05T08:13:54.960Z,2.00
2023-08-05T08:16:22.225Z,2.17
2023-08-05T08:18:49.531Z,2.45
2023-08-05T08:21:16.709Z,2.20
2023-08-05T08:23:44.123Z,1.83
2023-08-05T08:26:11.338Z,2.80
2023-08-05T08:28:38.512Z,2.22
2023-08-05T08:31:05.677Z,2.20
2023-08-05T08:33:32.994Z,2.60
2023-08-05T08:36:00.284Z,2.17
2023-08-05T08:38:27.657Z,2.60
2023-08-05T08:40:59.920Z,2.40
2023-08-05T08:43:29.027Z,2.72
2023-08-05T08:45:57.157Z,2.70
2023-08-05T08:48:25.332Z,2.70
2023-08-05T08:50:54.179Z,2.50
2023-08-05T08:53:22.996Z,2.88
2023-08-05T08:55:50.528Z,2.60
2023-08-05T08:58:17.781Z,2.22
2023-08-05T09:00:47.775Z,2.40
2023-08-05T09:05:46.844Z,2.15
2023-08-05T09:08:14.536Z,2.97
2023-08-05T09:10:41.797Z,2.45
2023-08-05T09:13:09.411Z,2.40
2023-08-05T09:15:40.555Z,2.38
2023-08-05T09:18:09.872Z,2.30
2023-08-05T09:20:38.683Z,2.03
2023-08-05T09:23:08.849Z,2.75
2023-08-05T09:28:15.020Z,2.33
2023-08-05T09:30:42.328Z,2.33
2023-08-05T09:33:09.713Z,2.58
2023-08-05T09:35:37.007Z,3.30
2023-08-05T09:38:05.325Z,2.45
2023-08-05T09:40:40.500Z,2.38
2023-08-05T09:43:09.243Z,2.45
2023-08-05T09:45:37.084Z,2.55
2023-08-05T09:48:05.668Z,3.30
2023-08-05T09:50:33.344Z,2.80
2023-08-05T09:53:01.841Z,2.30
2023-08-05T09:55:29.669Z,2.20
2023-08-05T09:57:58.008Z,2.47
2023-08-05T10:00:25.894Z,2.92
2023-08-05T10:02:53.266Z,2.40
2023-08-05T10:05:22.030Z,3.58
2023-08-05T10:07:49.315Z,2.90
2023-08-05T10:10:23.995Z,3.10
2023-08-05T10:13:04.322Z,2.10
2023-08-05T10:15:36.892Z,2.33
2023-08-05T10:18:11.776Z,2.20
2023-08-05T10:20:39.835Z,2.30
2023-08-05T10:23:11.077Z,2.22
2023-08-05T10:25:51.193Z,2.00
2023-08-05T10:28:24.350Z,2.42
2023-08-05T10:30:52.938Z,2.20
2023-08-05T10:33:21.226Z,2.03
2023-08-05T10:35:51.002Z,2.30
2023-08-05T10:38:22.819Z,2.67
2023-08-05T10:40:57.696Z,2.55
2023-08-05T10:43:29.585Z,2.20
2023-08-05T10:45:57.002Z,2.08
2023-08-05T10:48:39.640Z,2.50
2023-08-05T10:51:15.966Z,2.30
2023-08-05T10:54:00.421Z,2.15
2023-08-05T10:56:38.450Z,2.15
2023-08-05T10:59:06.684Z,2.60
2023-08-05T11:01:57.802Z,2.30
2023-08-05T11:04:34.626Z,2.33
2023-08-05T11:07:03.612Z,2.30
2023-08-05T11:09:34.660Z,2.40
2023-08-05T11:12:02.720Z,2.58
2023-08-05T11:14:30.956Z,2.15
2023-08-05T11:17:06.812Z,2.08
2023-08-05T11:19:56.460Z,2.50
2023-08-05T11:22:27.592Z,2.85
2023-08-05T11:25:02.645Z,3.80
2023-08-05T11:27:37.409Z,4.28
2023-08-05T11:30:21.089Z,2.83
2023-08-05T11:32:57.385Z,2.25
2023-08-05T11:35:26.534Z,3.08
2023-08-05T11:37:54.824Z,2.50
2023-08-05T11:40:22.629Z,2.30
2023-08-05T11:42:50.116Z,2.40
2023-08-05T11:45:18.127Z,2.63
2023-08-05T11:47:46.311Z,2.58
2023-08-05T11:50:14.280Z,2.38
2023-08-05T11:52:41.986Z,2.40
2023-08-05T11:55:11.618Z,2.40
2023-08-05T11:57:39.216Z,2.45
2023-08-05T12:00:11.432Z,2.53
2023-08-05T12:02:39.195Z,2.80
2023-08-05T12:05:10.533Z,2.78
2023-08-05T12:07:43.125Z,2.53
2023-08-05T12:10:14.011Z,2.65
2023-08-05T12:12:46.277Z,2.78
2023-08-05T12:15:17.745Z,2.45
2023-08-05T12:17:52.438Z,2.58
2023-08-05T12:20:23.751Z,2.40
2023-08-05T12:22:54.160Z,2.60
2023-08-05T12:25:24.199Z,2.47
2023-08-05T12:27:51.409Z,2.60
2023-08-05T12:30:18.881Z,2.90
2023-08-05T12:32:46.289Z,2.60
2023-08-05T12:35:13.820Z,2.63
2023-08-05T12:37:43.213Z,2.60
2023-08-05T12:40:14.586Z,2.67
2023-08-05T12:42:42.161Z,2.47
2023-08-05T12:45:10.978Z,2.67
2023-08-05T12:47:40.357Z,2.42
2023-08-05T12:50:09.272Z,2.50
2023-08-05T12:52:36.976Z,2.90
2023-08-05T12:55:04.536Z,2.97
2023-08-05T12:57:33.613Z,3.20
2023-08-05T13:00:02.242Z,2.90
2023-08-05T13:02:35.564Z,2.60
2023-08-05T13:05:04.225Z,2.60
2023-08-05T13:07:33.449Z,2.75
2023-08-05T13:10:00.986Z,3.38
2023-08-05T13:12:28.226Z,2.70
2023-08-05T13:14:55.552Z,2.38
2023-08-05T13:17:22.882Z,2.88
2023-08-05T13:19:50.339Z,3.05
2023-08-05T13:22:18.185Z,2.80
2023-08-05T13:24:45.569Z,3.10
2023-08-05T13:27:13.333Z,3.03
2023-08-05T13:29:40.554Z,2.60
2023-08-05T13:32:07.945Z,2.60
2023-08-05T13:34:35.133Z,2.53
2023-08-05T13:37:02.393Z,2.42
2023-08-05T13:39:29.623Z,2.70
2023-08-05T13:42:01.617Z,2.80
2023-08-05T13:44:29.394Z,2.60
2023-08-05T13:46:56.727Z,2.88
2023-08-05T13:49:24.121Z,2.75
2023-08-05T13:51:52.836Z,2.75
2023-08-05T13:54:20.756Z,2.90
2023-08-05T13:56:48.060Z,2.95
2023-08-05T13:59:15.265Z,2.78
2023-08-05T14:01:45.097Z,3.10
2023-08-05T14:04:12.830Z,2.60
2023-08-05T14:06:40.048Z,2.67
2023-08-05T14:09:09.341Z,2.60
2023-08-05T14:11:37.471Z,2.45
2023-08-05T14:14:05.156Z,3.10
2023-08-05T14:16:32.940Z,3.38
2023-08-05T14:19:01.617Z,3.13
2023-08-05T14:21:29.619Z,2.95
2023-08-05T14:23:57.229Z,3.80
2023-08-05T14:26:24.861Z,3.15
2023-08-05T14:28:52.562Z,2.88
2023-08-05T14:31:19.966Z,2.90
2023-08-05T14:33:47.419Z,3.03
2023-08-05T14:36:14.890Z,3.35
2023-08-05T14:38:42.168Z,3.60
2023-08-05T14:41:16.371Z,3.00
2023-08-05T14:43:44.417Z,2.92
2023-08-05T14:46:11.713Z,3.38
2023-08-05T14:48:38.997Z,3.00
2023-08-05T14:51:06.176Z,3.50
2023-08-05T14:53:33.406Z,3.53
2023-08-05T14:56:01.579Z,3.25
2023-08-05T14:58:29.122Z,2.90
2023-08-05T15:00:56.731Z,3.58
2023-08-05T15:03:23.980Z,3.05
2023-08-05T15:05:56.176Z,3.97
2023-08-05T15:08:25.924Z,4.40
2023-08-05T15:11:00.054Z,2.60
2023-08-05T15:13:27.628Z,2.90
2023-08-05T15:15:54.995Z,2.70
2023-08-05T15:18:22.420Z,2.83
2023-08-05T15:20:50.828Z,2.97
2023-08-05T15:23:30.110Z,3.05
2023-08-05T15:26:01.473Z,2.90
2023-08-05T15:28:29.555Z,3.15
2023-08-05T15:30:57.318Z,3.08
2023-08-05T15:33:24.965Z,3.40
2023-08-05T15:35:52.420Z,2.78
2023-08-05T15:38:19.581Z,2.85
2023-08-05T15:40:46.900Z,2.72
2023-08-05T15:43:16.485Z,3.00
2023-08-05T15:45:55.760Z,3.83
2023-08-05T15:48:23.387Z,3.38
2023-08-05T15:50:50.765Z,2.85
2023-08-05T15:53:18.036Z,3.15
2023-08-05T15:55:45.372Z,2.92
2023-08-05T15:58:12.695Z,3.45
2023-08-05T16:00:39.971Z,3.15
2023-08-05T16:03:07.172Z,2.90
2023-08-05T16:05:34.326Z,4.47
2023-08-05T16:08:01.519Z,3.45
2023-08-05T16:10:28.850Z,2.72
2023-08-05T16:12:58.070Z,3.45
2023-08-05T16:15:25.638Z,3.90
2023-08-05T16:17:53.007Z,3.90
2023-08-05T16:20:20.237Z,3.55
2023-08-05T16:22:47.469Z,3.63
2023-08-05T16:25:14.660Z,4.65
2023-08-05T16:27:42.376Z,3.53
2023-08-05T16:30:10.055Z,3.03
2023-08-05T16:32:39.344Z,3.00
2023-08-05T16:35:06.952Z,3.85
2023-08-05T16:37:34.269Z,3.40
2023-08-05T16:40:01.524Z,3.35
2023-08-05T16:42:31.995Z,3.50
2023-08-05T16:44:59.158Z,3.22
2023-08-05T16:47:26.386Z,4.03
2023-08-05T16:49:53.606Z,3.00
2023-08-05T16:52:20.806Z,3.97
2023-08-05T16:54:47.996Z,3.83
2023-08-05T16:57:15.308Z,6.60
2023-08-05T16:59:42.518Z,7.85
2023-08-05T17:02:09.680Z,6.40
2023-08-05T17:04:36.899Z,6.07
2023-08-05T17:07:04.311Z,6.60
2023-08-05T17:09:31.460Z,6.50
2023-08-05T17:11:58.787Z,6.05
2023-08-05T17:14:26.004Z,6.53
2023-08-05T17:16:53.254Z,7.13
2023-08-05T17:19:20.535Z,7.40
2023-08-05T17:21:47.736Z,7.57
2023-08-05T17:24:14.949Z,8.10
2023-08-05T17:26:42.156Z,7.28
2023-08-05T17:29:09.346Z,7.68
2023-08-05T17:31:36.622Z,7.07
2023-08-05T17:34:03.859Z,7.28
2023-08-05T17:36:31.050Z,8.82
2023-08-05T17:38:58.241Z,6.65
2023-08-05T17:41:25.431Z,5.85
2023-08-05T17:43:52.623Z,6.47
2023-08-05T17:46:19.953Z,6.43
2023-08-05T17:48:47.215Z,7.32
2023-08-05T17:51:16.966Z,7.38
2023-08-05T17:53:44.253Z,6.75
2023-08-05T17:56:12.260Z,7.63
2023-08-05T17:58:39.464Z,7.00
2023-08-05T18:01:06.743Z,7.93
2023-08-05T18:03:33.996Z,7.55
2023-08-05T18:10:58.146Z,9.38
2023-08-05T18:13:25.361Z,13.43
2023-08-05T18:15:52.708Z,15.85
2023-08-05T18:18:21.090Z,17.10
2023-08-05T18:20:51.123Z,20.73
2023-08-05T18:23:18.310Z,17.20
2023-08-05T18:25:45.554Z,16.42
2023-08-05T18:28:12.699Z,13.02
2023-08-05T18:30:39.993Z,12.60
2023-08-05T18:33:07.201Z,12.57
2023-08-05T18:35:34.577Z,12.43
2023-08-05T18:38:02.120Z,13.85
2023-08-05T18:40:29.447Z,12.45
2023-08-05T18:42:56.641Z,12.23
2023-08-05T18:45:23.902Z,10.93
2023-08-05T18:47:51.188Z,11.88
2023-08-05T18:50:18.441Z,11.57
2023-08-05T18:52:46.405Z,13.82
2023-08-05T18:55:13.598Z,12.93
2023-08-05T18:57:40.791Z,12.23
2023-08-05T19:00:09.940Z,11.45
2023-08-05T19:02:37.288Z,11.13
2023-08-05T19:05:05.078Z,12.10
2023-08-05T19:07:32.944Z,12.63
2023-08-05T19:10:03.054Z,13.35
2023-08-05T19:12:32.446Z,9.57
2023-08-05T19:14:59.689Z,9.85
2023-08-05T19:17:26.937Z,8.55
2023-08-05T19:19:54.276Z,9.52
2023-08-05T19:22:21.495Z,8.80
2023-08-05T19:24:48.673Z,10.05
2023-08-05T19:27:15.947Z,10.30
2023-08-05T19:29:43.125Z,9.90
2023-08-05T19:32:10.297Z,10.25
2023-08-05T19:34:37.493Z,9.35
2023-08-05T19:37:05.104Z,10.13
2023-08-05T19:39:33.731Z,9.65
2023-08-05T19:42:00.997Z,9.23
2023-08-05T19:44:28.324Z,9.02
2023-08-05T19:46:55.694Z,8.20
2023-08-05T19:49:23.391Z,8.00
2023-08-05T19:51:50.817Z,8.38
2023-08-05T19:54:18.118Z,8.60
2023-08-05T19:56:45.273Z,9.35
2023-08-05T19:59:12.648Z,8.77
2023-08-05T20:01:39.906Z,9.75
2023-08-05T20:04:07.130Z,9.35
2023-08-05T20:06:35.361Z,10.23
2023-08-05T20:09:02.608Z,14.90
2023-08-05T20:11:29.835Z,14.23
2023-08-05T20:13:57.046Z,9.32
2023-08-05T20:16:24.400Z,9.00
2023-08-05T20:18:51.597Z,9.93
2023-08-05T20:21:18.924Z,9.15
2023-08-05T20:23:46.364Z,8.95
2023-08-05T20:26:15.150Z,9.27
2023-08-05T20:28:42.520Z,8.13
2023-08-05T20:31:18.991Z,8.75
2023-08-05T20:33:46.370Z,9.32
2023-08-05T20:36:13.699Z,8.82
2023-08-05T20:38:40.899Z,8.68
2023-08-05T20:41:08.158Z,8.18
2023-08-05T20:43:35.360Z,8.48
2023-08-05T20:46:02.569Z,8.20
2023-08-05T20:48:29.791Z,9.00
2023-08-05T20:50:58.034Z,9.15
2023-08-05T20:53:26.047Z,8.50
2023-08-05T20:55:55.355Z,8.35
2023-08-05T20:58:22.842Z,8.80
2023-08-05T21:00:57.523Z,8.10
2023-08-05T21:03:24.809Z,7.80
2023-08-05T21:06:02.323Z,7.10
2023-08-05T21:08:30.219Z,7.68
2023-08-05T21:11:08.697Z,8.00
2023-08-05T21:13:37.601Z,7.32
2023-08-05T21:16:09.244Z,7.80
2023-08-05T21:18:36.620Z,7.00
2023-08-05T21:21:04.222Z,6.78
2023-08-05T21:23:31.477Z,6.78
2023-08-05T21:25:58.778Z,6.60
2023-08-05T21:28:26.314Z,10.57
2023-08-05T21:31:01.121Z,8.05
2023-08-05T21:33:29.710Z,7.00
2023-08-05T21:35:57.735Z,6.60
2023-08-05T21:38:24.967Z,7.47
2023-08-05T21:40:52.168Z,7.07
2023-08-05T21:43:19.863Z,6.95
2023-08-05T21:45:53.265Z,6.95
2023-08-05T21:48:22.230Z,7.03
2023-08-05T21:50:50.075Z,7.00
2023-08-05T21:53:17.844Z,7.28
2023-08-05T21:55:46.185Z,8.10
2023-08-05T21:58:13.489Z,7.25
2023-08-05T22:00:40.710Z,7.00
2023-08-05T22:03:08.252Z,6.78
2023-08-05T22:05:35.575Z,7.90
2023-08-05T22:08:02.782Z,7.78
2023-08-05T22:10:30.250Z,7.05
2023-08-05T22:12:58.408Z,8.60
2023-08-05T22:15:45.240Z,7.97
2023-08-05T22:18:13.059Z,7.35
2023-08-05T22:21:00.465Z,7.75
2023-08-05T22:23:27.681Z,7.38
2023-08-05T22:25:55.367Z,7.95
2023-08-05T22:28:22.687Z,7.40
2023-08-05T22:30:57.077Z,7.22
2023-08-05T22:33:24.435Z,7.45
2023-08-05T22:35:51.707Z,6.70
2023-08-05T22:38:21.101Z,7.55
2023-08-05T22:40:48.346Z,7.30
2023-08-05T22:43:15.554Z,7.88
2023-08-05T22:45:42.930Z,7.90
2023-08-05T22:48:10.116Z,9.57
2023-08-05T22:50:41.383Z,8.70
2023-08-05T22:53:08.665Z,7.80
2023-08-05T22:55:37.263Z,8.25
2023-08-05T22:58:04.748Z,8.45
2023-08-05T23:00:32.016Z,8.43
2023-08-05T23:02:59.533Z,8.00
2023-08-05T23:05:26.769Z,8.27
2023-08-05T23:07:54.049Z,8.00
2023-08-05T23:10:21.932Z,9.35
2023-08-05T23:12:51.766Z,7.57
2023-08-05T23:15:18.957Z,8.15
2023-08-05T23:17:46.268Z,8.40
2023-08-05T23:20:13.781Z,7.75
2023-08-05T23:22:41.177Z,8.18
2023-08-05T23:25:08.684Z,8.40
2023-08-05T23:27:35.897Z,8.27
2023-08-05T23:30:03.259Z,7.93
2023-08-05T23:32:33.159Z,8.07
2023-08-05T23:35:00.368Z,9.07
2023-08-05T23:37:27.539Z,8.57
2023-08-05T23:39:54.675Z,7.93
2023-08-05T23:42:21.871Z,8.80
2023-08-05T23:44:51.018Z,9.60
2023-08-05T23:47:18.266Z,7.47
2023-08-05T23:49:45.423Z,7.68
2023-08-05T23:52:12.772Z,8.93
2023-08-05T23:54:40.002Z,8.68
2023-08-05T23:57:07.319Z,9.10
2023-08-05T23:59:34.531Z,9.02
